Sherman Oaks, California
Current Conditions -  °F | °C
As of 10:51 AM on Tuesday 27 Jan 2015 (Local Time) from KVNY Reporting Station
Scattered Clouds Scattered Clouds  
Wind Chill: 66°   Ceiling: Unl
Heat Index: 66°   Visibility: 10mi
Dew Point: 52°   Wind: 3mph
Humidity: 60%   Direction: NA
Pressure: 30.2"   Gusts: NA
Location:  34.15°N, 118.45°W
Report Text: KVNY 271851Z VRB03KT 10SM FEW027 SCT060 19/11 A3020 RMK AO2 SLP221 T01890111
Loading
Personal Weather Stations






























Interactive Weather Map New forecast layout! Learn more

10-Day Weather Forecast

Advertisements
Track Severe Weather on mobile